sensor_id;sensor_type;location;lat;lon;timestamp;P1;durP1;ratioP1;P2;durP2;ratioP2
5458;SDS011;2752;49.992;8.422;2022-08-03T00:01:04;6.97;;;3.30;;
5458;SDS011;2752;49.992;8.422;2022-08-03T00:03:31;13.30;;;3.13;;
5458;SDS011;2752;49.992;8.422;2022-08-03T00:05:58;10.03;;;3.37;;
5458;SDS011;2752;49.992;8.422;2022-08-03T00:08:26;5.83;;;3.37;;
5458;SDS011;2752;49.992;8.422;2022-08-03T00:10:52;4.90;;;3.20;;
5458;SDS011;2752;49.992;8.422;2022-08-03T00:13:19;6.13;;;2.90;;
5458;SDS011;2752;49.992;8.422;2022-08-03T00:15:46;7.10;;;3.37;;
5458;SDS011;2752;49.992;8.422;2022-08-03T00:18:13;4.80;;;2.83;;
5458;SDS011;2752;49.992;8.422;2022-08-03T00:20:40;8.17;;;3.17;;
5458;SDS011;2752;49.992;8.422;2022-08-03T00:23:06;5.57;;;2.70;;
5458;SDS011;2752;49.992;8.422;2022-08-03T00:25:35;3.93;;;2.63;;
5458;SDS011;2752;49.992;8.422;2022-08-03T00:28:03;4.73;;;2.70;;
5458;SDS011;2752;49.992;8.422;2022-08-03T00:30:31;8.23;;;2.90;;
5458;SDS011;2752;49.992;8.422;2022-08-03T00:32:58;3.10;;;2.10;;
5458;SDS011;2752;49.992;8.422;2022-08-03T00:35:25;4.37;;;2.87;;
5458;SDS011;2752;49.992;8.422;2022-08-03T00:37:52;16.33;;;3.20;;
5458;SDS011;2752;49.992;8.422;2022-08-03T00:40:19;4.67;;;2.70;;
5458;SDS011;2752;49.992;8.422;2022-08-03T00:42:51;4.97;;;2.20;;
5458;SDS011;2752;49.992;8.422;2022-08-03T00:45:19;8.37;;;3.40;;
5458;SDS011;2752;49.992;8.422;2022-08-03T00:47:48;4.70;;;2.80;;
5458;SDS011;2752;49.992;8.422;2022-08-03T00:50:15;5.23;;;2.83;;
5458;SDS011;2752;49.992;8.422;2022-08-03T00:52:43;6.43;;;2.67;;
5458;SDS011;2752;49.992;8.422;2022-08-03T00:55:11;3.20;;;2.40;;
5458;SDS011;2752;49.992;8.422;2022-08-03T00:57:42;3.33;;;2.40;;
5458;SDS011;2752;49.992;8.422;2022-08-03T01:00:12;4.30;;;2.40;;
5458;SDS011;2752;49.992;8.422;2022-08-03T01:02:40;7.67;;;2.20;;
5458;SDS011;2752;49.992;8.422;2022-08-03T01:05:07;4.63;;;2.63;;
5458;SDS011;2752;49.992;8.422;2022-08-03T01:07:36;4.77;;;2.50;;
5458;SDS011;2752;49.992;8.422;2022-08-03T01:10:12;5.80;;;2.90;;
5458;SDS011;2752;49.992;8.422;2022-08-03T01:12:46;8.07;;;2.73;;
5458;SDS011;2752;49.992;8.422;2022-08-03T01:15:21;5.70;;;2.60;;
5458;SDS011;2752;49.992;8.422;2022-08-03T01:17:54;4.00;;;2.70;;
5458;SDS011;2752;49.992;8.422;2022-08-03T01:20:24;5.60;;;2.27;;
5458;SDS011;2752;49.992;8.422;2022-08-03T01:23:09;4.47;;;2.47;;
5458;SDS011;2752;49.992;8.422;2022-08-03T01:25:59;8.87;;;2.83;;
5458;SDS011;2752;49.992;8.422;2022-08-03T01:28:38;5.30;;;2.63;;
5458;SDS011;2752;49.992;8.422;2022-08-03T01:31:27;5.37;;;2.93;;
5458;SDS011;2752;49.992;8.422;2022-08-03T01:34:05;4.00;;;2.80;;
5458;SDS011;2752;49.992;8.422;2022-08-03T01:36:35;4.20;;;2.50;;
5458;SDS011;2752;49.992;8.422;2022-08-03T01:39:05;6.90;;;2.93;;
5458;SDS011;2752;49.992;8.422;2022-08-03T01:41:35;5.53;;;3.23;;
5458;SDS011;2752;49.992;8.422;2022-08-03T01:44:07;5.60;;;3.10;;
5458;SDS011;2752;49.992;8.422;2022-08-03T01:46:38;13.83;;;3.27;;
5458;SDS011;2752;49.992;8.422;2022-08-03T01:49:06;3.80;;;2.47;;
5458;SDS011;2752;49.992;8.422;2022-08-03T01:51:34;3.03;;;2.60;;
5458;SDS011;2752;49.992;8.422;2022-08-03T01:54:03;4.00;;;2.80;;
5458;SDS011;2752;49.992;8.422;2022-08-03T01:56:33;5.70;;;2.93;;
5458;SDS011;2752;49.992;8.422;2022-08-03T01:59:01;4.67;;;2.97;;
5458;SDS011;2752;49.992;8.422;2022-08-03T02:01:28;3.83;;;2.30;;
5458;SDS011;2752;49.992;8.422;2022-08-03T02:03:58;6.83;;;2.73;;
5458;SDS011;2752;49.992;8.422;2022-08-03T02:06:26;6.40;;;2.50;;
5458;SDS011;2752;49.992;8.422;2022-08-03T02:08:55;6.33;;;2.97;;
5458;SDS011;2752;49.992;8.422;2022-08-03T02:11:24;3.13;;;2.07;;
5458;SDS011;2752;49.992;8.422;2022-08-03T02:13:51;2.87;;;2.20;;
5458;SDS011;2752;49.992;8.422;2022-08-03T02:16:19;7.10;;;2.90;;
5458;SDS011;2752;49.992;8.422;2022-08-03T02:18:48;3.67;;;2.70;;
5458;SDS011;2752;49.992;8.422;2022-08-03T02:21:17;6.00;;;3.43;;
5458;SDS011;2752;49.992;8.422;2022-08-03T02:23:44;5.33;;;2.87;;
5458;SDS011;2752;49.992;8.422;2022-08-03T02:26:13;4.93;;;2.83;;
5458;SDS011;2752;49.992;8.422;2022-08-03T02:28:42;4.37;;;3.10;;
5458;SDS011;2752;49.992;8.422;2022-08-03T02:31:14;4.57;;;3.40;;
5458;SDS011;2752;49.992;8.422;2022-08-03T02:33:46;5.47;;;3.93;;
5458;SDS011;2752;49.992;8.422;2022-08-03T02:36:14;9.73;;;2.43;;
5458;SDS011;2752;49.992;8.422;2022-08-03T02:38:45;7.27;;;3.17;;
5458;SDS011;2752;49.992;8.422;2022-08-03T02:41:17;5.53;;;3.10;;
5458;SDS011;2752;49.992;8.422;2022-08-03T02:43:50;8.63;;;3.40;;
5458;SDS011;2752;49.992;8.422;2022-08-03T02:46:19;5.53;;;3.23;;
5458;SDS011;2752;49.992;8.422;2022-08-03T02:48:48;4.40;;;3.03;;
5458;SDS011;2752;49.992;8.422;2022-08-03T02:51:18;7.90;;;3.57;;
5458;SDS011;2752;49.992;8.422;2022-08-03T02:53:45;6.37;;;3.30;;
5458;SDS011;2752;49.992;8.422;2022-08-03T02:56:13;4.83;;;2.63;;
5458;SDS011;2752;49.992;8.422;2022-08-03T02:58:41;4.67;;;3.53;;
5458;SDS011;2752;49.992;8.422;2022-08-03T03:01:11;5.80;;;3.10;;
5458;SDS011;2752;49.992;8.422;2022-08-03T03:03:39;4.23;;;2.80;;
5458;SDS011;2752;49.992;8.422;2022-08-03T03:06:06;4.70;;;3.20;;
5458;SDS011;2752;49.992;8.422;2022-08-03T03:08:35;7.77;;;3.20;;
5458;SDS011;2752;49.992;8.422;2022-08-03T03:11:02;3.90;;;3.20;;
5458;SDS011;2752;49.992;8.422;2022-08-03T03:13:29;3.27;;;2.80;;
5458;SDS011;2752;49.992;8.422;2022-08-03T03:15:58;8.50;;;3.27;;
5458;SDS011;2752;49.992;8.422;2022-08-03T03:18:26;4.50;;;2.77;;
5458;SDS011;2752;49.992;8.422;2022-08-03T03:20:54;5.37;;;3.20;;
5458;SDS011;2752;49.992;8.422;2022-08-03T03:23:21;6.47;;;3.90;;
5458;SDS011;2752;49.992;8.422;2022-08-03T03:25:51;4.40;;;3.40;;
5458;SDS011;2752;49.992;8.422;2022-08-03T03:28:20;5.27;;;3.10;;
5458;SDS011;2752;49.992;8.422;2022-08-03T03:30:47;2.80;;;2.50;;
5458;SDS011;2752;49.992;8.422;2022-08-03T03:33:14;4.87;;;3.37;;
5458;SDS011;2752;49.992;8.422;2022-08-03T03:35:41;4.77;;;3.27;;
5458;SDS011;2752;49.992;8.422;2022-08-03T03:38:09;7.07;;;2.90;;
5458;SDS011;2752;49.992;8.422;2022-08-03T03:40:36;4.50;;;2.93;;
5458;SDS011;2752;49.992;8.422;2022-08-03T03:43:07;3.40;;;3.10;;
5458;SDS011;2752;49.992;8.422;2022-08-03T03:45:35;5.00;;;2.63;;
5458;SDS011;2752;49.992;8.422;2022-08-03T03:48:02;3.83;;;2.83;;
5458;SDS011;2752;49.992;8.422;2022-08-03T03:50:30;3.20;;;2.90;;
5458;SDS011;2752;49.992;8.422;2022-08-03T03:52:57;3.30;;;3.00;;
5458;SDS011;2752;49.992;8.422;2022-08-03T03:55:24;9.30;;;3.57;;
5458;SDS011;2752;49.992;8.422;2022-08-03T03:57:51;5.43;;;3.00;;
5458;SDS011;2752;49.992;8.422;2022-08-03T04:00:19;9.03;;;3.13;;
5458;SDS011;2752;49.992;8.422;2022-08-03T04:02:46;4.00;;;2.90;;
5458;SDS011;2752;49.992;8.422;2022-08-03T04:05:13;3.70;;;2.80;;
5458;SDS011;2752;49.992;8.422;2022-08-03T04:07:58;6.50;;;3.70;;
5458;SDS011;2752;49.992;8.422;2022-08-03T04:11:01;6.10;;;3.17;;
5458;SDS011;2752;49.992;8.422;2022-08-03T04:13:32;8.50;;;2.90;;
5458;SDS011;2752;49.992;8.422;2022-08-03T04:16:04;4.43;;;3.10;;
5458;SDS011;2752;49.992;8.422;2022-08-03T04:18:33;11.90;;;3.40;;
5458;SDS011;2752;49.992;8.422;2022-08-03T04:21:02;6.57;;;3.67;;
5458;SDS011;2752;49.992;8.422;2022-08-03T04:23:32;6.83;;;4.00;;
5458;SDS011;2752;49.992;8.422;2022-08-03T04:26:00;10.33;;;2.90;;
5458;SDS011;2752;49.992;8.422;2022-08-03T04:28:30;3.97;;;2.60;;
5458;SDS011;2752;49.992;8.422;2022-08-03T04:30:58;5.60;;;2.67;;
5458;SDS011;2752;49.992;8.422;2022-08-03T04:33:27;3.00;;;2.37;;
5458;SDS011;2752;49.992;8.422;2022-08-03T04:35:56;34.67;;;3.07;;
5458;SDS011;2752;49.992;8.422;2022-08-03T04:38:24;4.80;;;3.10;;
5458;SDS011;2752;49.992;8.422;2022-08-03T04:40:52;5.93;;;3.50;;
5458;SDS011;2752;49.992;8.422;2022-08-03T04:43:20;7.57;;;3.20;;
5458;SDS011;2752;49.992;8.422;2022-08-03T04:45:48;4.43;;;3.10;;
5458;SDS011;2752;49.992;8.422;2022-08-03T04:48:17;4.27;;;2.87;;
5458;SDS011;2752;49.992;8.422;2022-08-03T04:50:46;4.20;;;2.90;;
5458;SDS011;2752;49.992;8.422;2022-08-03T04:53:13;9.10;;;3.63;;
5458;SDS011;2752;49.992;8.422;2022-08-03T04:55:41;6.57;;;3.07;;
5458;SDS011;2752;49.992;8.422;2022-08-03T04:58:08;6.37;;;2.87;;
5458;SDS011;2752;49.992;8.422;2022-08-03T05:00:36;4.13;;;3.00;;
5458;SDS011;2752;49.992;8.422;2022-08-03T05:03:03;5.03;;;3.43;;
5458;SDS011;2752;49.992;8.422;2022-08-03T05:05:29;5.37;;;3.53;;
5458;SDS011;2752;49.992;8.422;2022-08-03T05:07:57;8.67;;;3.40;;
5458;SDS011;2752;49.992;8.422;2022-08-03T05:10:24;4.90;;;3.20;;
5458;SDS011;2752;49.992;8.422;2022-08-03T05:12:51;3.83;;;3.27;;
5458;SDS011;2752;49.992;8.422;2022-08-03T05:15:18;6.67;;;4.00;;
5458;SDS011;2752;49.992;8.422;2022-08-03T05:17:44;8.00;;;3.67;;
5458;SDS011;2752;49.992;8.422;2022-08-03T05:20:11;7.70;;;3.83;;
5458;SDS011;2752;49.992;8.422;2022-08-03T05:22:38;6.73;;;3.30;;
5458;SDS011;2752;49.992;8.422;2022-08-03T05:25:06;9.10;;;3.40;;
5458;SDS011;2752;49.992;8.422;2022-08-03T05:27:33;4.67;;;2.97;;
5458;SDS011;2752;49.992;8.422;2022-08-03T05:30:00;14.47;;;5.83;;
5458;SDS011;2752;49.992;8.422;2022-08-03T05:32:27;8.13;;;3.87;;
5458;SDS011;2752;49.992;8.422;2022-08-03T05:34:53;4.63;;;3.20;;
5458;SDS011;2752;49.992;8.422;2022-08-03T05:37:20;5.80;;;3.50;;
5458;SDS011;2752;49.992;8.422;2022-08-03T05:39:46;5.37;;;3.40;;
5458;SDS011;2752;49.992;8.422;2022-08-03T05:42:15;9.10;;;3.57;;
5458;SDS011;2752;49.992;8.422;2022-08-03T05:44:42;3.70;;;2.80;;
5458;SDS011;2752;49.992;8.422;2022-08-03T05:47:08;5.10;;;3.63;;
5458;SDS011;2752;49.992;8.422;2022-08-03T05:49:35;9.30;;;4.00;;
5458;SDS011;2752;49.992;8.422;2022-08-03T05:52:02;5.37;;;3.60;;
5458;SDS011;2752;49.992;8.422;2022-08-03T05:54:29;6.00;;;4.10;;
5458;SDS011;2752;49.992;8.422;2022-08-03T05:56:56;9.43;;;4.70;;
5458;SDS011;2752;49.992;8.422;2022-08-03T05:59:24;6.10;;;3.33;;
5458;SDS011;2752;49.992;8.422;2022-08-03T06:01:51;6.97;;;4.00;;
5458;SDS011;2752;49.992;8.422;2022-08-03T06:04:18;5.07;;;3.80;;
5458;SDS011;2752;49.992;8.422;2022-08-03T06:06:45;5.00;;;3.97;;
5458;SDS011;2752;49.992;8.422;2022-08-03T06:09:14;10.37;;;3.70;;
5458;SDS011;2752;49.992;8.422;2022-08-03T06:11:41;18.27;;;3.90;;
5458;SDS011;2752;49.992;8.422;2022-08-03T06:14:08;8.23;;;4.40;;
5458;SDS011;2752;49.992;8.422;2022-08-03T06:16:36;7.03;;;4.07;;
5458;SDS011;2752;49.992;8.422;2022-08-03T06:19:03;11.47;;;3.20;;
5458;SDS011;2752;49.992;8.422;2022-08-03T06:21:31;7.33;;;3.87;;
5458;SDS011;2752;49.992;8.422;2022-08-03T06:23:58;8.90;;;3.60;;
5458;SDS011;2752;49.992;8.422;2022-08-03T06:26:26;7.00;;;3.27;;
5458;SDS011;2752;49.992;8.422;2022-08-03T06:28:53;7.03;;;4.27;;
5458;SDS011;2752;49.992;8.422;2022-08-03T06:31:21;9.17;;;3.90;;
5458;SDS011;2752;49.992;8.422;2022-08-03T06:33:51;7.53;;;3.70;;
5458;SDS011;2752;49.992;8.422;2022-08-03T06:36:18;5.27;;;3.47;;
5458;SDS011;2752;49.992;8.422;2022-08-03T06:38:45;6.33;;;3.37;;
5458;SDS011;2752;49.992;8.422;2022-08-03T06:41:12;6.17;;;3.50;;
5458;SDS011;2752;49.992;8.422;2022-08-03T06:43:39;9.77;;;3.57;;
5458;SDS011;2752;49.992;8.422;2022-08-03T06:46:06;5.70;;;3.27;;
5458;SDS011;2752;49.992;8.422;2022-08-03T06:48:34;7.40;;;3.23;;
5458;SDS011;2752;49.992;8.422;2022-08-03T06:51:03;8.33;;;3.20;;
5458;SDS011;2752;49.992;8.422;2022-08-03T06:53:30;9.73;;;3.40;;
5458;SDS011;2752;49.992;8.422;2022-08-03T06:55:57;4.63;;;3.57;;
5458;SDS011;2752;49.992;8.422;2022-08-03T06:58:24;4.47;;;3.40;;
5458;SDS011;2752;49.992;8.422;2022-08-03T07:00:51;7.10;;;3.50;;
5458;SDS011;2752;49.992;8.422;2022-08-03T07:03:18;9.33;;;3.67;;
5458;SDS011;2752;49.992;8.422;2022-08-03T07:05:45;7.90;;;3.20;;
5458;SDS011;2752;49.992;8.422;2022-08-03T07:08:14;5.63;;;3.43;;
5458;SDS011;2752;49.992;8.422;2022-08-03T07:10:41;12.30;;;3.13;;
5458;SDS011;2752;49.992;8.422;2022-08-03T07:13:08;9.43;;;3.30;;
5458;SDS011;2752;49.992;8.422;2022-08-03T07:15:36;9.10;;;3.20;;
5458;SDS011;2752;49.992;8.422;2022-08-03T07:18:03;17.13;;;3.20;;
5458;SDS011;2752;49.992;8.422;2022-08-03T07:20:30;4.80;;;2.70;;
5458;SDS011;2752;49.992;8.422;2022-08-03T07:22:57;9.70;;;3.27;;
5458;SDS011;2752;49.992;8.422;2022-08-03T07:25:26;6.80;;;3.07;;
5458;SDS011;2752;49.992;8.422;2022-08-03T07:27:53;7.60;;;2.80;;
5458;SDS011;2752;49.992;8.422;2022-08-03T07:30:20;5.97;;;3.20;;
5458;SDS011;2752;49.992;8.422;2022-08-03T07:32:47;17.10;;;3.20;;
5458;SDS011;2752;49.992;8.422;2022-08-03T07:35:14;4.80;;;3.13;;
5458;SDS011;2752;49.992;8.422;2022-08-03T07:37:41;7.97;;;3.27;;
5458;SDS011;2752;49.992;8.422;2022-08-03T07:40:08;6.10;;;3.17;;
5458;SDS011;2752;49.992;8.422;2022-08-03T07:42:36;5.53;;;2.70;;
5458;SDS011;2752;49.992;8.422;2022-08-03T07:45:03;5.70;;;2.47;;
5458;SDS011;2752;49.992;8.422;2022-08-03T07:47:32;6.33;;;3.27;;
5458;SDS011;2752;49.992;8.422;2022-08-03T07:49:59;5.47;;;3.10;;
5458;SDS011;2752;49.992;8.422;2022-08-03T07:52:26;9.93;;;3.73;;
5458;SDS011;2752;49.992;8.422;2022-08-03T07:55:10;8.70;;;3.03;;
5458;SDS011;2752;49.992;8.422;2022-08-03T07:57:39;5.90;;;3.27;;
5458;SDS011;2752;49.992;8.422;2022-08-03T08:00:10;4.00;;;2.43;;
5458;SDS011;2752;49.992;8.422;2022-08-03T08:02:38;10.63;;;2.37;;
5458;SDS011;2752;49.992;8.422;2022-08-03T08:05:05;6.43;;;2.77;;
5458;SDS011;2752;49.992;8.422;2022-08-03T08:07:34;3.93;;;2.90;;
5458;SDS011;2752;49.992;8.422;2022-08-03T08:10:01;5.47;;;2.60;;
5458;SDS011;2752;49.992;8.422;2022-08-03T08:12:28;7.30;;;3.07;;
5458;SDS011;2752;49.992;8.422;2022-08-03T08:14:57;9.57;;;2.70;;
5458;SDS011;2752;49.992;8.422;2022-08-03T08:17:24;3.00;;;2.43;;
5458;SDS011;2752;49.992;8.422;2022-08-03T08:19:51;6.67;;;2.60;;
5458;SDS011;2752;49.992;8.422;2022-08-03T08:22:18;5.20;;;2.73;;
5458;SDS011;2752;49.992;8.422;2022-08-03T08:24:45;6.10;;;2.47;;
5458;SDS011;2752;49.992;8.422;2022-08-03T08:27:13;4.70;;;2.20;;
5458;SDS011;2752;49.992;8.422;2022-08-03T08:29:40;3.00;;;2.10;;
5458;SDS011;2752;49.992;8.422;2022-08-03T08:32:08;9.03;;;2.77;;
5458;SDS011;2752;49.992;8.422;2022-08-03T08:34:37;11.73;;;2.40;;
5458;SDS011;2752;49.992;8.422;2022-08-03T08:37:04;10.33;;;2.60;;
5458;SDS011;2752;49.992;8.422;2022-08-03T08:39:31;11.37;;;2.13;;
5458;SDS011;2752;49.992;8.422;2022-08-03T08:41:58;3.37;;;2.27;;
5458;SDS011;2752;49.992;8.422;2022-08-03T08:44:25;3.87;;;2.50;;
5458;SDS011;2752;49.992;8.422;2022-08-03T08:46:52;3.77;;;2.03;;
5458;SDS011;2752;49.992;8.422;2022-08-03T08:49:21;4.77;;;2.50;;
5458;SDS011;2752;49.992;8.422;2022-08-03T08:51:49;4.17;;;2.30;;
5458;SDS011;2752;49.992;8.422;2022-08-03T08:54:17;5.43;;;2.50;;
5458;SDS011;2752;49.992;8.422;2022-08-03T08:56:44;3.80;;;2.20;;
5458;SDS011;2752;49.992;8.422;2022-08-03T08:59:11;3.27;;;2.63;;
5458;SDS011;2752;49.992;8.422;2022-08-03T09:01:39;3.40;;;2.07;;
5458;SDS011;2752;49.992;8.422;2022-08-03T09:04:05;4.47;;;2.20;;
5458;SDS011;2752;49.992;8.422;2022-08-03T09:06:34;4.80;;;2.10;;
5458;SDS011;2752;49.992;8.422;2022-08-03T09:09:01;7.50;;;2.17;;
5458;SDS011;2752;49.992;8.422;2022-08-03T09:11:29;4.40;;;2.13;;
5458;SDS011;2752;49.992;8.422;2022-08-03T09:13:56;2.80;;;1.77;;
5458;SDS011;2752;49.992;8.422;2022-08-03T09:16:24;4.80;;;1.90;;
5458;SDS011;2752;49.992;8.422;2022-08-03T09:18:52;1.90;;;1.60;;
5458;SDS011;2752;49.992;8.422;2022-08-03T09:21:20;3.17;;;1.87;;
5458;SDS011;2752;49.992;8.422;2022-08-03T09:23:50;3.50;;;2.50;;
5458;SDS011;2752;49.992;8.422;2022-08-03T09:26:21;2.20;;;1.80;;
5458;SDS011;2752;49.992;8.422;2022-08-03T09:28:55;6.80;;;2.13;;
5458;SDS011;2752;49.992;8.422;2022-08-03T09:31:32;4.53;;;1.70;;
5458;SDS011;2752;49.992;8.422;2022-08-03T09:34:00;7.60;;;1.97;;
5458;SDS011;2752;49.992;8.422;2022-08-03T09:36:37;6.73;;;2.10;;
5458;SDS011;2752;49.992;8.422;2022-08-03T09:39:07;3.20;;;1.80;;
5458;SDS011;2752;49.992;8.422;2022-08-03T09:41:36;3.00;;;2.07;;
5458;SDS011;2752;49.992;8.422;2022-08-03T09:44:03;4.10;;;1.60;;
5458;SDS011;2752;49.992;8.422;2022-08-03T09:46:30;4.30;;;1.93;;
5458;SDS011;2752;49.992;8.422;2022-08-03T09:49:10;3.00;;;2.20;;
5458;SDS011;2752;49.992;8.422;2022-08-03T09:51:37;2.83;;;1.97;;
5458;SDS011;2752;49.992;8.422;2022-08-03T09:54:04;3.13;;;1.70;;
5458;SDS011;2752;49.992;8.422;2022-08-03T09:56:36;6.03;;;2.20;;
5458;SDS011;2752;49.992;8.422;2022-08-03T09:59:04;2.23;;;1.63;;
5458;SDS011;2752;49.992;8.422;2022-08-03T10:01:31;2.67;;;2.43;;
5458;SDS011;2752;49.992;8.422;2022-08-03T10:03:58;4.47;;;1.90;;
5458;SDS011;2752;49.992;8.422;2022-08-03T10:06:25;4.47;;;2.10;;
5458;SDS011;2752;49.992;8.422;2022-08-03T10:09:04;3.77;;;1.70;;
5458;SDS011;2752;49.992;8.422;2022-08-03T10:11:33;3.30;;;1.63;;
5458;SDS011;2752;49.992;8.422;2022-08-03T10:14:01;2.13;;;1.57;;
5458;SDS011;2752;49.992;8.422;2022-08-03T10:16:30;3.57;;;1.70;;
5458;SDS011;2752;49.992;8.422;2022-08-03T10:18:58;3.67;;;1.70;;
5458;SDS011;2752;49.992;8.422;2022-08-03T10:21:27;3.67;;;1.60;;
5458;SDS011;2752;49.992;8.422;2022-08-03T10:23:58;9.63;;;2.10;;
5458;SDS011;2752;49.992;8.422;2022-08-03T10:26:29;3.10;;;2.00;;
5458;SDS011;2752;49.992;8.422;2022-08-03T10:28:58;4.50;;;1.83;;
5458;SDS011;2752;49.992;8.422;2022-08-03T10:31:27;5.80;;;1.57;;
5458;SDS011;2752;49.992;8.422;2022-08-03T10:34:00;3.77;;;1.80;;
5458;SDS011;2752;49.992;8.422;2022-08-03T10:36:29;2.27;;;1.73;;
5458;SDS011;2752;49.992;8.422;2022-08-03T10:38:58;2.67;;;1.67;;
5458;SDS011;2752;49.992;8.422;2022-08-03T10:41:29;2.70;;;1.60;;
5458;SDS011;2752;49.992;8.422;2022-08-03T10:44:02;6.10;;;2.20;;
5458;SDS011;2752;49.992;8.422;2022-08-03T10:46:30;1.80;;;1.43;;
5458;SDS011;2752;49.992;8.422;2022-08-03T10:49:00;12.63;;;2.00;;
5458;SDS011;2752;49.992;8.422;2022-08-03T10:51:27;1.40;;;1.20;;
5458;SDS011;2752;49.992;8.422;2022-08-03T10:53:56;1.90;;;1.70;;
5458;SDS011;2752;49.992;8.422;2022-08-03T10:56:38;6.30;;;1.43;;
5458;SDS011;2752;49.992;8.422;2022-08-03T11:05:24;4.67;;;1.73;;
5458;SDS011;2752;49.992;8.422;2022-08-03T11:10:53;3.83;;;1.67;;
5458;SDS011;2752;49.992;8.422;2022-08-03T11:13:23;5.80;;;2.00;;
5458;SDS011;2752;49.992;8.422;2022-08-03T11:15:54;8.27;;;2.00;;
5458;SDS011;2752;49.992;8.422;2022-08-03T11:18:22;4.60;;;1.90;;
5458;SDS011;2752;49.992;8.422;2022-08-03T11:20:50;7.70;;;1.93;;
5458;SDS011;2752;49.992;8.422;2022-08-03T11:23:18;1.70;;;1.57;;
5458;SDS011;2752;49.992;8.422;2022-08-03T11:26:11;4.03;;;2.30;;
5458;SDS011;2752;49.992;8.422;2022-08-03T11:28:40;1.87;;;1.60;;
5458;SDS011;2752;49.992;8.422;2022-08-03T11:34:14;3.73;;;2.07;;
5458;SDS011;2752;49.992;8.422;2022-08-03T11:39:47;5.07;;;2.40;;
5458;SDS011;2752;49.992;8.422;2022-08-03T11:45:12;2.87;;;1.80;;
5458;SDS011;2752;49.992;8.422;2022-08-03T11:47:41;6.93;;;1.90;;
5458;SDS011;2752;49.992;8.422;2022-08-03T11:50:08;3.70;;;1.83;;
5458;SDS011;2752;49.992;8.422;2022-08-03T11:52:36;2.80;;;1.90;;
5458;SDS011;2752;49.992;8.422;2022-08-03T11:55:09;2.13;;;1.60;;
5458;SDS011;2752;49.992;8.422;2022-08-03T11:57:37;6.03;;;1.60;;
5458;SDS011;2752;49.992;8.422;2022-08-03T12:00:18;3.10;;;2.00;;
5458;SDS011;2752;49.992;8.422;2022-08-03T12:03:05;3.15;;;1.70;;
5458;SDS011;2752;49.992;8.422;2022-08-03T12:05:37;1.70;;;1.60;;
5458;SDS011;2752;49.992;8.422;2022-08-03T12:08:06;6.07;;;2.00;;
5458;SDS011;2752;49.992;8.422;2022-08-03T12:10:33;2.13;;;1.83;;
5458;SDS011;2752;49.992;8.422;2022-08-03T12:13:01;1.60;;;1.50;;
5458;SDS011;2752;49.992;8.422;2022-08-03T12:15:32;5.23;;;1.63;;
5458;SDS011;2752;49.992;8.422;2022-08-03T12:18:01;2.97;;;1.63;;
5458;SDS011;2752;49.992;8.422;2022-08-03T12:20:30;1.83;;;1.73;;
5458;SDS011;2752;49.992;8.422;2022-08-03T12:23:01;2.00;;;1.50;;
5458;SDS011;2752;49.992;8.422;2022-08-03T12:25:29;4.93;;;1.60;;
5458;SDS011;2752;49.992;8.422;2022-08-03T12:28:05;1.70;;;1.37;;
5458;SDS011;2752;49.992;8.422;2022-08-03T12:30:34;2.27;;;1.17;;
5458;SDS011;2752;49.992;8.422;2022-08-03T12:33:10;2.47;;;1.30;;
5458;SDS011;2752;49.992;8.422;2022-08-03T12:35:49;2.23;;;1.63;;
5458;SDS011;2752;49.992;8.422;2022-08-03T12:38:28;4.40;;;3.23;;
5458;SDS011;2752;49.992;8.422;2022-08-03T12:40:59;4.57;;;1.45;;
5458;SDS011;2752;49.992;8.422;2022-08-03T12:43:27;1.25;;;1.15;;
5458;SDS011;2752;49.992;8.422;2022-08-03T12:46:11;2.47;;;1.50;;
5458;SDS011;2752;49.992;8.422;2022-08-03T12:48:57;2.83;;;1.20;;
5458;SDS011;2752;49.992;8.422;2022-08-03T12:51:31;1.55;;;1.45;;
5458;SDS011;2752;49.992;8.422;2022-08-03T12:53:58;1.42;;;1.10;;
5458;SDS011;2752;49.992;8.422;2022-08-03T12:56:25;2.85;;;1.80;;
5458;SDS011;2752;49.992;8.422;2022-08-03T12:58:52;3.30;;;1.70;;
5458;SDS011;2752;49.992;8.422;2022-08-03T13:01:19;2.88;;;1.40;;
5458;SDS011;2752;49.992;8.422;2022-08-03T13:03:48;2.03;;;1.85;;
5458;SDS011;2752;49.992;8.422;2022-08-03T13:06:17;4.15;;;1.95;;
5458;SDS011;2752;49.992;8.422;2022-08-03T13:08:46;1.88;;;1.30;;
5458;SDS011;2752;49.992;8.422;2022-08-03T13:11:18;1.52;;;1.30;;
5458;SDS011;2752;49.992;8.422;2022-08-03T13:13:46;3.88;;;2.00;;
5458;SDS011;2752;49.992;8.422;2022-08-03T13:16:13;5.18;;;2.97;;
5458;SDS011;2752;49.992;8.422;2022-08-03T13:18:40;2.90;;;2.40;;
5458;SDS011;2752;49.992;8.422;2022-08-03T13:21:06;1.98;;;1.38;;
5458;SDS011;2752;49.992;8.422;2022-08-03T13:23:33;2.35;;;1.40;;
5458;SDS011;2752;49.992;8.422;2022-08-03T13:26:01;1.80;;;1.60;;
5458;SDS011;2752;49.992;8.422;2022-08-03T13:28:28;3.00;;;1.45;;
5458;SDS011;2752;49.992;8.422;2022-08-03T13:30:54;5.40;;;1.58;;
5458;SDS011;2752;49.992;8.422;2022-08-03T13:33:22;5.97;;;2.00;;
5458;SDS011;2752;49.992;8.422;2022-08-03T13:35:48;1.77;;;1.40;;
5458;SDS011;2752;49.992;8.422;2022-08-03T13:38:15;2.72;;;1.27;;
5458;SDS011;2752;49.992;8.422;2022-08-03T13:40:42;3.27;;;1.50;;
5458;SDS011;2752;49.992;8.422;2022-08-03T13:43:10;1.45;;;1.30;;
5458;SDS011;2752;49.992;8.422;2022-08-03T13:45:37;2.33;;;1.33;;
5458;SDS011;2752;49.992;8.422;2022-08-03T13:48:04;4.82;;;1.58;;
5458;SDS011;2752;49.992;8.422;2022-08-03T13:50:31;5.15;;;1.63;;
5458;SDS011;2752;49.992;8.422;2022-08-03T13:52:58;1.90;;;1.45;;
5458;SDS011;2752;49.992;8.422;2022-08-03T13:55:25;4.43;;;1.40;;
5458;SDS011;2752;49.992;8.422;2022-08-03T13:57:51;12.32;;;1.35;;
5458;SDS011;2752;49.992;8.422;2022-08-03T14:00:19;1.65;;;1.50;;
5458;SDS011;2752;49.992;8.422;2022-08-03T14:02:50;3.30;;;1.30;;
5458;SDS011;2752;49.992;8.422;2022-08-03T14:05:17;1.60;;;1.38;;
5458;SDS011;2752;49.992;8.422;2022-08-03T14:07:43;4.63;;;1.45;;
5458;SDS011;2752;49.992;8.422;2022-08-03T14:10:12;1.42;;;1.33;;
5458;SDS011;2752;49.992;8.422;2022-08-03T14:12:39;5.32;;;1.10;;
5458;SDS011;2752;49.992;8.422;2022-08-03T14:15:06;1.65;;;1.55;;
5458;SDS011;2752;49.992;8.422;2022-08-03T14:17:35;1.60;;;1.08;;
5458;SDS011;2752;49.992;8.422;2022-08-03T14:20:02;2.03;;;1.55;;
5458;SDS011;2752;49.992;8.422;2022-08-03T14:22:30;3.00;;;1.65;;
5458;SDS011;2752;49.992;8.422;2022-08-03T14:24:57;2.83;;;1.65;;
5458;SDS011;2752;49.992;8.422;2022-08-03T14:27:23;3.53;;;1.38;;
5458;SDS011;2752;49.992;8.422;2022-08-03T14:29:50;5.55;;;1.48;;
5458;SDS011;2752;49.992;8.422;2022-08-03T14:32:17;3.88;;;1.40;;
5458;SDS011;2752;49.992;8.422;2022-08-03T14:34:45;2.72;;;1.60;;
5458;SDS011;2752;49.992;8.422;2022-08-03T14:37:11;1.60;;;1.40;;
5458;SDS011;2752;49.992;8.422;2022-08-03T14:39:38;3.60;;;1.25;;
5458;SDS011;2752;49.992;8.422;2022-08-03T14:42:05;3.15;;;1.75;;
5458;SDS011;2752;49.992;8.422;2022-08-03T14:44:32;6.65;;;1.77;;
5458;SDS011;2752;49.992;8.422;2022-08-03T14:46:58;2.88;;;1.80;;
5458;SDS011;2752;49.992;8.422;2022-08-03T14:49:25;1.55;;;1.45;;
5458;SDS011;2752;49.992;8.422;2022-08-03T14:51:53;1.45;;;1.33;;
5458;SDS011;2752;49.992;8.422;2022-08-03T14:54:20;8.82;;;1.50;;
5458;SDS011;2752;49.992;8.422;2022-08-03T14:56:47;4.30;;;1.35;;
5458;SDS011;2752;49.992;8.422;2022-08-03T14:59:14;1.85;;;1.40;;
5458;SDS011;2752;49.992;8.422;2022-08-03T15:01:40;3.30;;;1.27;;
5458;SDS011;2752;49.992;8.422;2022-08-03T15:04:07;4.95;;;1.60;;
5458;SDS011;2752;49.992;8.422;2022-08-03T15:06:34;2.75;;;1.50;;
5458;SDS011;2752;49.992;8.422;2022-08-03T15:09:02;1.40;;;1.30;;
5458;SDS011;2752;49.992;8.422;2022-08-03T15:11:29;6.88;;;1.80;;
5458;SDS011;2752;49.992;8.422;2022-08-03T15:13:55;1.85;;;1.50;;
5458;SDS011;2752;49.992;8.422;2022-08-03T15:16:22;2.33;;;1.58;;
5458;SDS011;2752;49.992;8.422;2022-08-03T15:18:49;1.30;;;1.20;;
5458;SDS011;2752;49.992;8.422;2022-08-03T15:21:16;2.72;;;1.50;;
5458;SDS011;2752;49.992;8.422;2022-08-03T15:23:42;5.68;;;1.55;;
5458;SDS011;2752;49.992;8.422;2022-08-03T15:26:10;2.33;;;1.40;;
5458;SDS011;2752;49.992;8.422;2022-08-03T15:28:37;4.65;;;1.40;;
5458;SDS011;2752;49.992;8.422;2022-08-03T15:31:04;3.53;;;1.65;;
5458;SDS011;2752;49.992;8.422;2022-08-03T15:33:31;1.80;;;1.27;;
5458;SDS011;2752;49.992;8.422;2022-08-03T15:35:58;1.80;;;1.48;;
5458;SDS011;2752;49.992;8.422;2022-08-03T15:38:24;1.90;;;1.17;;
5458;SDS011;2752;49.992;8.422;2022-08-03T15:40:51;2.03;;;1.40;;
5458;SDS011;2752;49.992;8.422;2022-08-03T15:43:20;1.50;;;1.40;;